createdAt,value
2022-08-20T00:00:14.148Z,12.65
2022-08-20T00:02:41.906Z,12.43
2022-08-20T00:05:08.384Z,12.95
2022-08-20T00:07:34.717Z,13.25
2022-08-20T00:10:00.959Z,14.77
2022-08-20T00:12:27.345Z,14.60
2022-08-20T00:14:53.615Z,14.02
2022-08-20T00:17:19.881Z,14.73
2022-08-20T00:19:46.154Z,15.05
2022-08-20T00:22:13.501Z,14.40
2022-08-20T00:24:39.747Z,13.77
2022-08-20T00:27:06.105Z,11.77
2022-08-20T00:29:32.410Z,11.23
2022-08-20T00:31:58.711Z,10.93
2022-08-20T00:34:25.027Z,10.70
2022-08-20T00:36:51.493Z,10.80
2022-08-20T00:39:17.768Z,10.73
2022-08-20T00:41:43.969Z,9.25
2022-08-20T00:44:15.098Z,10.68
2022-08-20T00:46:42.649Z,10.27
2022-08-20T00:49:12.323Z,10.88
2022-08-20T00:51:38.643Z,11.57
2022-08-20T00:54:06.770Z,10.05
2022-08-20T00:56:33.873Z,11.18
2022-08-20T00:59:00.833Z,11.18
2022-08-20T01:01:27.184Z,12.05
2022-08-20T01:03:56.408Z,12.07
2022-08-20T01:06:24.748Z,11.85
2022-08-20T01:08:51.101Z,12.25
2022-08-20T01:11:20.177Z,13.43
2022-08-20T01:13:48.389Z,13.45
2022-08-20T01:16:18.636Z,13.82
2022-08-20T01:18:46.310Z,12.57
2022-08-20T01:21:12.734Z,12.73
2022-08-20T01:23:38.953Z,12.45
2022-08-20T01:26:06.518Z,12.15
2022-08-20T01:28:35.963Z,12.38
2022-08-20T01:31:03.624Z,12.88
2022-08-20T01:33:29.956Z,13.80
2022-08-20T01:35:56.254Z,13.43
2022-08-20T01:38:22.811Z,13.95
2022-08-20T01:41:07.830Z,13.95
2022-08-20T01:43:36.466Z,16.70
2022-08-20T01:46:04.166Z,16.58
2022-08-20T01:48:31.065Z,17.20
2022-08-20T01:51:06.437Z,17.33
2022-08-20T01:53:34.583Z,16.98
2022-08-20T01:56:02.779Z,15.60
2022-08-20T01:58:29.711Z,15.98
2022-08-20T02:00:57.611Z,16.02
2022-08-20T02:03:24.067Z,17.05
2022-08-20T02:05:50.392Z,17.92
2022-08-20T02:08:16.763Z,19.65
2022-08-20T02:10:46.003Z,20.88
2022-08-20T02:13:13.732Z,20.25
2022-08-20T02:15:43.061Z,22.00
2022-08-20T02:18:12.410Z,21.25
2022-08-20T02:20:39.046Z,22.35
2022-08-20T02:23:06.115Z,22.63
2022-08-20T02:25:33.952Z,22.52
2022-08-20T02:28:06.747Z,22.80
2022-08-20T02:30:35.534Z,22.60
2022-08-20T02:33:02.713Z,21.58
2022-08-20T02:35:30.203Z,20.48
2022-08-20T02:37:57.737Z,20.60
2022-08-20T02:40:30.598Z,20.33
2022-08-20T02:42:58.313Z,20.85
2022-08-20T02:45:24.593Z,18.90
2022-08-20T02:47:53.862Z,19.15
2022-08-20T02:50:20.938Z,20.17
2022-08-20T02:52:51.833Z,19.25
2022-08-20T02:55:27.027Z,19.05
2022-08-20T02:57:58.807Z,19.70
2022-08-20T03:00:26.372Z,19.35
2022-08-20T03:02:52.693Z,18.63
2022-08-20T03:05:19.120Z,19.17
2022-08-20T03:07:46.795Z,19.27
2022-08-20T03:10:13.707Z,18.50
2022-08-20T03:12:40.421Z,17.98
2022-08-20T03:15:07.584Z,17.88
2022-08-20T03:17:43.813Z,18.80
2022-08-20T03:20:10.415Z,18.33
2022-08-20T03:22:36.747Z,19.17
2022-08-20T03:25:03.434Z,19.20
2022-08-20T03:27:32.724Z,17.90
2022-08-20T03:30:04.117Z,18.00
2022-08-20T03:32:30.372Z,18.05
2022-08-20T03:34:56.691Z,19.85
2022-08-20T03:37:23.215Z,19.33
2022-08-20T03:39:49.548Z,18.98
2022-08-20T03:42:15.838Z,18.13
2022-08-20T03:44:42.105Z,18.90
2022-08-20T03:47:09.368Z,17.60
2022-08-20T03:49:36.043Z,17.92
2022-08-20T03:52:03.609Z,19.60
2022-08-20T03:54:31.729Z,19.15
2022-08-20T03:56:59.125Z,17.95
2022-08-20T03:59:25.520Z,16.60
2022-08-20T04:01:52.571Z,14.55
2022-08-20T04:04:19.444Z,15.15
2022-08-20T04:06:47.391Z,14.80
2022-08-20T04:09:14.243Z,14.05
2022-08-20T04:11:41.307Z,13.98
2022-08-20T04:14:09.283Z,15.75
2022-08-20T04:16:37.784Z,16.35
2022-08-20T04:19:04.242Z,17.05
2022-08-20T04:21:33.192Z,16.98
2022-08-20T04:24:00.349Z,17.80
2022-08-20T04:26:26.623Z,17.02
2022-08-20T04:28:55.256Z,17.50
2022-08-20T04:31:25.234Z,17.25
2022-08-20T04:33:51.825Z,19.73
2022-08-20T04:36:18.104Z,21.05
2022-08-20T04:38:50.631Z,24.13
2022-08-20T04:41:22.640Z,27.70
2022-08-20T04:43:50.881Z,31.00
2022-08-20T04:46:17.160Z,34.50
2022-08-20T04:48:48.966Z,35.10
2022-08-20T04:51:17.099Z,38.28
2022-08-20T04:53:45.074Z,40.30
2022-08-20T04:56:19.686Z,41.67
2022-08-20T04:58:50.921Z,45.42
2022-08-20T05:01:17.241Z,45.67
2022-08-20T05:03:43.585Z,46.58
2022-08-20T05:06:10.894Z,44.83
2022-08-20T05:08:38.455Z,47.83
2022-08-20T05:11:34.881Z,46.58
2022-08-20T05:13:52.809Z,46.72
2022-08-20T05:16:19.834Z,45.22
2022-08-20T05:18:52.617Z,41.08
2022-08-20T05:21:19.936Z,42.67
2022-08-20T05:23:46.215Z,43.10
2022-08-20T05:26:12.914Z,42.60
2022-08-20T05:28:52.787Z,41.22
2022-08-20T05:31:32.435Z,40.17
2022-08-20T05:34:00.440Z,40.60
2022-08-20T05:36:26.949Z,42.03
2022-08-20T05:38:53.748Z,41.95
2022-08-20T05:41:27.693Z,42.83
2022-08-20T05:43:55.738Z,41.97
2022-08-20T05:46:22.837Z,44.38
2022-08-20T05:48:49.418Z,43.05
2022-08-20T05:51:15.813Z,42.78
2022-08-20T05:53:42.072Z,44.13
2022-08-20T05:56:10.254Z,45.33
2022-08-20T05:58:36.793Z,44.90
2022-08-20T06:01:04.089Z,44.00
2022-08-20T06:03:48.837Z,43.95
2022-08-20T06:06:17.929Z,43.15
2022-08-20T06:09:01.414Z,43.50
2022-08-20T06:11:27.682Z,42.38
2022-08-20T06:13:53.928Z,42.95
2022-08-20T06:16:20.161Z,43.50
2022-08-20T06:18:47.046Z,42.63
2022-08-20T06:21:13.358Z,42.58
2022-08-20T06:23:54.152Z,43.85
2022-08-20T06:26:29.663Z,43.07
2022-08-20T06:28:57.504Z,39.78
2022-08-20T06:31:24.256Z,41.00
2022-08-20T06:33:50.532Z,38.85
2022-08-20T06:36:18.774Z,36.35
2022-08-20T06:38:46.060Z,36.13
2022-08-20T06:41:12.336Z,36.47
2022-08-20T06:43:38.629Z,35.15
2022-08-20T06:46:06.396Z,34.28
2022-08-20T06:48:32.883Z,33.33
2022-08-20T06:50:59.195Z,33.28
2022-08-20T06:53:25.490Z,33.15
2022-08-20T06:55:54.019Z,32.58
2022-08-20T06:58:32.701Z,31.20
2022-08-20T07:01:09.642Z,30.88
2022-08-20T07:03:38.079Z,30.90
2022-08-20T07:06:04.704Z,30.83
2022-08-20T07:08:31.015Z,31.83
2022-08-20T07:10:57.243Z,27.58
2022-08-20T07:13:24.334Z,28.10
2022-08-20T07:15:54.012Z,25.30
2022-08-20T07:18:28.209Z,24.08
2022-08-20T07:20:56.710Z,22.17
2022-08-20T07:23:23.750Z,21.70
2022-08-20T07:25:50.382Z,23.60
2022-08-20T07:28:18.717Z,22.27
2022-08-20T07:31:04.255Z,21.15
2022-08-20T07:33:40.500Z,18.25
2022-08-20T07:36:07.654Z,17.13
2022-08-20T07:38:34.056Z,15.82
2022-08-20T07:41:02.158Z,17.30
2022-08-20T07:43:28.419Z,16.25
2022-08-20T07:45:56.342Z,16.65
2022-08-20T07:48:31.010Z,14.95
2022-08-20T07:50:59.562Z,15.60
2022-08-20T07:53:25.934Z,15.68
2022-08-20T07:55:58.862Z,14.55
2022-08-20T07:58:27.694Z,14.18
2022-08-20T08:01:00.139Z,13.55
2022-08-20T08:03:40.702Z,14.68
2022-08-20T08:06:14.377Z,14.40
2022-08-20T08:08:41.318Z,12.63
2022-08-20T08:11:07.800Z,13.60
2022-08-20T08:13:37.878Z,12.93
2022-08-20T08:16:05.962Z,13.20
2022-08-20T08:18:38.112Z,12.93
2022-08-20T08:21:05.439Z,14.38
2022-08-20T08:23:32.308Z,13.60
2022-08-20T08:25:59.176Z,12.50
2022-08-20T08:28:26.108Z,12.32
2022-08-20T08:30:52.449Z,13.45
2022-08-20T08:33:29.183Z,12.15
2022-08-20T08:35:56.235Z,12.43
2022-08-20T08:38:23.085Z,12.85
2022-08-20T08:40:51.450Z,11.00
2022-08-20T08:43:27.085Z,11.00
2022-08-20T08:46:01.377Z,11.95
2022-08-20T08:48:32.366Z,13.77
2022-08-20T08:50:59.500Z,14.50
2022-08-20T08:53:30.245Z,15.18
2022-08-20T08:55:56.525Z,14.95
2022-08-20T08:58:22.805Z,19.02
2022-08-20T09:00:56.447Z,15.52
2022-08-20T09:03:25.851Z,17.77
2022-08-20T09:05:53.540Z,17.02
2022-08-20T09:08:24.086Z,16.65
2022-08-20T09:10:50.396Z,16.42
2022-08-20T09:13:16.678Z,16.42
2022-08-20T09:15:42.961Z,18.05
2022-08-20T09:18:09.232Z,17.30
2022-08-20T09:20:35.498Z,17.33
2022-08-20T09:23:01.810Z,17.02
2022-08-20T09:25:28.060Z,21.27
2022-08-20T09:27:54.439Z,18.27
2022-08-20T09:30:21.045Z,17.77
2022-08-20T09:32:47.374Z,17.40
2022-08-20T09:35:13.785Z,17.23
2022-08-20T09:37:40.105Z,15.05
2022-08-20T09:40:08.405Z,15.15
2022-08-20T09:42:40.723Z,12.82
2022-08-20T09:45:10.769Z,12.45
2022-08-20T09:47:37.770Z,10.98
2022-08-20T09:50:06.727Z,11.15
2022-08-20T09:52:38.877Z,12.02
2022-08-20T09:55:27.240Z,12.80
2022-08-20T09:57:53.776Z,12.32
2022-08-20T10:00:20.085Z,13.20
2022-08-20T10:02:46.400Z,13.73
2022-08-20T10:05:12.948Z,13.88
2022-08-20T10:07:39.687Z,13.60
2022-08-20T10:10:07.496Z,13.40
2022-08-20T10:12:33.966Z,12.65
2022-08-20T10:15:00.185Z,13.15
2022-08-20T10:17:26.446Z,12.25
2022-08-20T10:19:52.766Z,11.05
2022-08-20T10:22:19.146Z,10.90
2022-08-20T10:24:45.402Z,11.48
2022-08-20T10:27:11.740Z,12.93
2022-08-20T10:29:37.985Z,11.32
2022-08-20T10:32:14.967Z,12.68
2022-08-20T10:34:42.690Z,13.18
2022-08-20T10:37:09.210Z,12.05
2022-08-20T10:39:36.031Z,12.57
2022-08-20T10:42:02.307Z,13.32
2022-08-20T10:44:30.162Z,12.85
2022-08-20T10:46:57.084Z,11.68
2022-08-20T10:49:23.547Z,11.18
2022-08-20T10:51:49.854Z,10.73
2022-08-20T10:54:16.094Z,10.88
2022-08-20T10:56:42.817Z,12.57
2022-08-20T10:59:09.119Z,11.93
2022-08-20T11:01:36.940Z,11.05
2022-08-20T11:04:03.632Z,11.00
2022-08-20T11:06:29.909Z,10.27
2022-08-20T11:08:57.041Z,10.43
2022-08-20T11:11:23.558Z,10.40
2022-08-20T11:13:49.851Z,9.73
2022-08-20T11:16:16.121Z,8.38
2022-08-20T11:18:46.774Z,8.88
2022-08-20T11:21:14.018Z,9.73
2022-08-20T11:23:40.382Z,10.07
2022-08-20T11:26:06.710Z,10.57
2022-08-20T11:28:33.227Z,11.45
2022-08-20T11:31:00.480Z,11.73
2022-08-20T11:33:26.813Z,12.27
2022-08-20T11:35:53.135Z,11.77
2022-08-20T11:38:19.439Z,10.27
2022-08-20T11:40:48.656Z,10.88
2022-08-20T11:43:16.657Z,10.02
2022-08-20T11:45:44.805Z,9.32
2022-08-20T11:48:11.105Z,10.32
2022-08-20T11:50:37.339Z,9.75
2022-08-20T11:53:03.604Z,8.80
2022-08-20T11:55:30.332Z,9.52
2022-08-20T11:57:59.978Z,9.68
2022-08-20T12:00:32.351Z,9.70
2022-08-20T12:03:00.523Z,11.18
2022-08-20T12:05:27.334Z,12.02
2022-08-20T12:07:53.638Z,11.90
2022-08-20T12:10:19.961Z,10.82
2022-08-20T12:12:46.338Z,11.15
2022-08-20T12:15:12.605Z,11.07
2022-08-20T12:17:39.758Z,11.00
2022-08-20T12:20:10.513Z,10.13
2022-08-20T12:22:37.053Z,10.70
2022-08-20T12:25:04.473Z,8.25
2022-08-20T12:27:32.397Z,8.27
2022-08-20T12:29:59.981Z,8.07
2022-08-20T12:32:27.662Z,8.75
2022-08-20T12:34:54.311Z,10.15
2022-08-20T12:37:22.911Z,9.38
2022-08-20T12:39:51.408Z,9.88
2022-08-20T12:42:18.242Z,9.45
2022-08-20T12:44:44.536Z,8.82
2022-08-20T12:47:34.145Z,8.75
2022-08-20T12:50:01.966Z,8.27
2022-08-20T12:52:28.999Z,7.55
2022-08-20T12:54:55.305Z,7.43
2022-08-20T12:57:26.500Z,8.40
2022-08-20T12:59:52.744Z,7.47
2022-08-20T13:02:19.169Z,6.53
2022-08-20T13:04:45.640Z,5.38
2022-08-20T13:07:12.869Z,6.13
2022-08-20T13:09:40.466Z,5.00
2022-08-20T13:12:07.100Z,6.55
2022-08-20T13:14:33.514Z,5.30
2022-08-20T13:17:00.849Z,6.32
2022-08-20T13:19:27.854Z,6.20
2022-08-20T13:21:55.060Z,4.90
2022-08-20T13:24:21.900Z,4.82
2022-08-20T13:26:48.255Z,5.38
2022-08-20T13:29:14.607Z,5.65
2022-08-20T13:31:41.401Z,4.63
2022-08-20T13:34:07.708Z,4.55
2022-08-20T13:36:34.646Z,4.28
2022-08-20T13:39:01.350Z,3.90
2022-08-20T13:41:27.659Z,3.92
2022-08-20T13:43:54.013Z,3.55
2022-08-20T13:46:20.281Z,3.75
2022-08-20T13:48:46.571Z,3.10
2022-08-20T13:51:12.878Z,3.08
2022-08-20T13:53:39.142Z,3.65
2022-08-20T13:56:05.453Z,3.30
2022-08-20T13:58:31.729Z,3.85
2022-08-20T14:00:58.089Z,3.20
2022-08-20T14:03:25.282Z,3.35
2022-08-20T14:05:52.148Z,3.10
2022-08-20T14:08:22.642Z,3.45
2022-08-20T14:10:51.417Z,4.13
2022-08-20T14:13:19.353Z,3.60
2022-08-20T14:15:45.739Z,3.15
2022-08-20T14:18:12.610Z,3.20
2022-08-20T14:20:38.990Z,3.25
2022-08-20T14:23:05.263Z,2.95
2022-08-20T14:25:31.873Z,2.90
2022-08-20T14:27:58.316Z,2.80
2022-08-20T14:30:28.916Z,2.95
2022-08-20T14:32:55.299Z,2.78
2022-08-20T14:35:21.944Z,2.30
2022-08-20T14:37:52.831Z,2.53
2022-08-20T14:40:20.059Z,2.97
2022-08-20T14:42:47.796Z,2.90
2022-08-20T14:45:18.605Z,2.70
2022-08-20T14:47:54.055Z,2.40
2022-08-20T14:50:26.025Z,2.00
2022-08-20T14:52:53.050Z,2.20
2022-08-20T14:55:20.449Z,2.70
2022-08-20T14:57:47.039Z,2.63
2022-08-20T15:00:17.770Z,2.25
2022-08-20T15:02:44.684Z,2.60
2022-08-20T15:05:11.123Z,2.33
2022-08-20T15:07:39.026Z,2.55
2022-08-20T15:10:09.230Z,2.78
2022-08-20T15:12:35.597Z,2.38
2022-08-20T15:15:15.328Z,2.38
2022-08-20T15:17:46.709Z,2.42
2022-08-20T15:20:20.112Z,2.65
2022-08-20T15:25:14.600Z,2.10
2022-08-20T15:27:41.061Z,2.53
2022-08-20T15:30:15.112Z,2.65
2022-08-20T15:32:41.491Z,2.50
2022-08-20T15:35:09.880Z,2.65
2022-08-20T15:37:38.460Z,2.10
2022-08-20T15:40:07.643Z,2.42
2022-08-20T15:42:33.957Z,2.33
2022-08-20T15:45:00.220Z,2.30
2022-08-20T15:47:28.631Z,2.70
2022-08-20T15:50:14.012Z,2.63
2022-08-20T15:52:42.327Z,2.95
2022-08-20T15:55:11.311Z,3.13
2022-08-20T15:57:45.195Z,2.90
2022-08-20T16:00:12.664Z,2.65
2022-08-20T16:02:44.853Z,3.20
2022-08-20T16:05:41.970Z,2.92
2022-08-20T16:08:08.619Z,2.70
2022-08-20T16:10:49.876Z,3.00
2022-08-20T16:13:39.246Z,2.80
2022-08-20T16:16:09.534Z,3.33
2022-08-20T16:18:37.420Z,3.38
2022-08-20T16:21:08.151Z,3.20
2022-08-20T16:23:37.351Z,3.47
2022-08-20T16:26:12.664Z,3.88
2022-08-20T16:28:57.490Z,3.65
2022-08-20T16:31:25.374Z,3.60
2022-08-20T16:33:55.173Z,3.97
2022-08-20T16:36:36.899Z,4.85
2022-08-20T16:39:08.303Z,4.90
2022-08-20T16:41:37.947Z,4.65
2022-08-20T16:44:07.639Z,3.90
2022-08-20T16:46:38.163Z,3.67
2022-08-20T16:49:11.194Z,4.97
2022-08-20T16:51:39.642Z,4.53
2022-08-20T16:54:06.061Z,4.30
2022-08-20T16:56:34.231Z,4.60
2022-08-20T16:59:04.743Z,4.68
2022-08-20T17:01:31.101Z,4.68
2022-08-20T17:03:57.522Z,4.30
2022-08-20T17:06:37.363Z,3.65
2022-08-20T17:09:11.155Z,4.80
2022-08-20T17:11:37.934Z,4.43
2022-08-20T17:14:10.142Z,3.97
2022-08-20T17:16:38.798Z,3.95
2022-08-20T17:19:17.942Z,4.30
2022-08-20T17:21:44.318Z,4.22
2022-08-20T17:24:22.509Z,3.83
2022-08-20T17:26:50.642Z,4.25
2022-08-20T17:29:21.610Z,3.75
2022-08-20T17:31:52.412Z,5.25
2022-08-20T17:34:18.666Z,3.85
2022-08-20T17:36:49.431Z,3.85
2022-08-20T17:39:18.207Z,4.30
2022-08-20T17:41:47.404Z,4.13
2022-08-20T17:44:33.248Z,4.57
2022-08-20T17:46:59.674Z,3.95
2022-08-20T17:49:40.833Z,4.50
2022-08-20T17:52:11.372Z,4.90
2022-08-20T17:54:41.135Z,4.18
2022-08-20T17:57:12.962Z,4.93
2022-08-20T18:00:02.702Z,4.95
2022-08-20T18:02:29.363Z,4.78
2022-08-20T18:04:55.958Z,4.32
2022-08-20T18:07:25.092Z,4.50
2022-08-20T18:09:54.322Z,4.88
2022-08-20T18:12:36.094Z,4.72
2022-08-20T18:15:05.135Z,8.43
2022-08-20T18:17:40.439Z,8.52
2022-08-20T18:20:22.056Z,7.07
2022-08-20T18:22:55.956Z,5.47
2022-08-20T18:25:32.804Z,4.70
2022-08-20T18:28:03.493Z,4.43
2022-08-20T18:30:29.974Z,5.32
2022-08-20T18:33:02.043Z,5.40
2022-08-20T18:35:37.512Z,4.70
2022-08-20T18:38:24.474Z,5.88
2022-08-20T18:40:55.074Z,5.60
2022-08-20T18:43:30.252Z,4.72
2022-08-20T18:45:56.592Z,4.80
2022-08-20T18:48:24.521Z,5.05
2022-08-20T18:50:54.956Z,4.95
2022-08-20T18:53:21.238Z,5.55
2022-08-20T18:55:58.967Z,5.50
2022-08-20T18:58:29.765Z,5.10
2022-08-20T19:00:56.194Z,5.97
2022-08-20T19:03:37.786Z,6.00
2022-08-20T19:06:03.978Z,5.05
2022-08-20T19:08:42.880Z,6.22
2022-08-20T19:11:27.618Z,6.15
2022-08-20T19:14:07.582Z,6.07
2022-08-20T19:16:35.993Z,7.45
2022-08-20T19:19:02.322Z,8.23
2022-08-20T19:21:35.274Z,7.82
2022-08-20T19:24:03.145Z,8.30
2022-08-20T19:26:31.246Z,7.53
2022-08-20T19:29:00.163Z,9.95
2022-08-20T19:31:28.196Z,6.82
2022-08-20T19:34:19.583Z,6.20
2022-08-20T19:36:52.450Z,6.97
2022-08-20T19:39:20.804Z,7.45
2022-08-20T19:41:55.923Z,7.10
2022-08-20T19:44:46.875Z,6.53
2022-08-20T19:47:19.967Z,6.40
2022-08-20T19:50:06.772Z,7.47
2022-08-20T19:52:45.243Z,6.95
2022-08-20T19:55:25.597Z,8.20
2022-08-20T19:57:53.274Z,6.80
2022-08-20T20:00:19.688Z,6.35
2022-08-20T20:02:46.004Z,6.90
2022-08-20T20:05:12.307Z,7.20
2022-08-20T20:07:40.787Z,6.78
2022-08-20T20:10:08.583Z,7.57
2022-08-20T20:12:35.269Z,6.80
2022-08-20T20:15:01.810Z,7.00
2022-08-20T20:17:31.502Z,6.72
2022-08-20T20:19:59.918Z,6.88
2022-08-20T20:22:28.718Z,8.43
2022-08-20T20:25:04.013Z,7.65
2022-08-20T20:27:31.995Z,7.97
2022-08-20T20:30:00.046Z,8.35
2022-08-20T20:32:26.590Z,7.50
2022-08-20T20:34:55.388Z,7.57
2022-08-20T20:37:42.226Z,9.77
2022-08-20T20:40:21.513Z,8.65
2022-08-20T20:42:58.709Z,7.75
2022-08-20T20:45:29.088Z,6.40
2022-08-20T20:47:55.545Z,6.70
2022-08-20T20:50:27.119Z,6.10
2022-08-20T20:52:56.544Z,6.45
2022-08-20T20:55:25.194Z,6.20
2022-08-20T20:57:52.044Z,6.28
2022-08-20T21:00:19.505Z,6.00
2022-08-20T21:02:45.963Z,6.82
2022-08-20T21:05:13.982Z,6.10
2022-08-20T21:07:55.108Z,6.22
2022-08-20T21:10:22.982Z,6.18
2022-08-20T21:12:52.923Z,6.28
2022-08-20T21:15:20.729Z,6.22
2022-08-20T21:17:47.134Z,6.60
2022-08-20T21:20:13.467Z,6.88
2022-08-20T21:22:39.910Z,6.88
2022-08-20T21:25:07.019Z,6.65
2022-08-20T21:27:34.151Z,6.35
2022-08-20T21:30:00.548Z,6.50
2022-08-20T21:32:26.806Z,6.75
2022-08-20T21:34:53.094Z,6.68
2022-08-20T21:37:19.389Z,6.43
2022-08-20T21:39:45.675Z,6.88
2022-08-20T21:42:28.429Z,6.90
2022-08-20T21:44:56.095Z,6.55
2022-08-20T21:47:22.678Z,6.88
2022-08-20T21:49:48.900Z,6.57
2022-08-20T21:52:15.214Z,8.40
2022-08-20T21:54:41.446Z,6.65
2022-08-20T21:57:08.965Z,6.82
2022-08-20T21:59:38.415Z,7.22
2022-08-20T22:02:04.726Z,6.43
2022-08-20T22:04:35.198Z,7.22
2022-08-20T22:07:02.422Z,6.90
2022-08-20T22:09:28.959Z,7.57
2022-08-20T22:11:57.487Z,7.40
2022-08-20T22:14:27.412Z,8.02
2022-08-20T22:16:53.663Z,6.97
2022-08-20T22:19:19.988Z,6.80
2022-08-20T22:21:46.439Z,7.30
2022-08-20T22:24:13.399Z,7.65
2022-08-20T22:26:40.389Z,6.95
2022-08-20T22:29:07.572Z,6.95
2022-08-20T22:31:35.069Z,6.43
2022-08-20T22:34:01.382Z,6.78
2022-08-20T22:36:28.029Z,6.43
2022-08-20T22:38:54.918Z,8.55
2022-08-20T22:41:21.559Z,7.35
2022-08-20T22:43:56.867Z,7.07
2022-08-20T22:46:25.046Z,6.93
2022-08-20T22:48:53.244Z,7.10
2022-08-20T22:51:30.955Z,7.70
2022-08-20T22:53:57.810Z,7.57
2022-08-20T22:56:24.112Z,7.53
2022-08-20T22:58:50.955Z,7.03
2022-08-20T23:01:17.733Z,7.70
2022-08-20T23:03:44.118Z,9.57
2022-08-20T23:06:10.661Z,7.13
2022-08-20T23:08:37.925Z,7.28
2022-08-20T23:11:04.286Z,6.97
2022-08-20T23:13:30.539Z,7.65
2022-08-20T23:15:57.170Z,8.55
2022-08-20T23:18:23.622Z,7.15
2022-08-20T23:20:54.432Z,6.88
2022-08-20T23:23:21.068Z,7.20
2022-08-20T23:25:47.487Z,6.38
2022-08-20T23:28:13.816Z,6.50
2022-08-20T23:30:40.134Z,6.60
2022-08-20T23:33:06.395Z,6.10
2022-08-20T23:35:33.352Z,6.50
2022-08-20T23:37:59.956Z,6.13
2022-08-20T23:40:28.227Z,6.40
2022-08-20T23:42:55.508Z,6.00
2022-08-20T23:45:21.919Z,6.50
2022-08-20T23:47:48.551Z,6.40
2022-08-20T23:50:17.089Z,6.00
2022-08-20T23:52:43.435Z,6.32
2022-08-20T23:55:09.937Z,6.28
2022-08-20T23:57:37.582Z,6.45
